createdAt,value
2023-03-11T00:01:58.094Z,96627.81
2023-03-11T00:04:24.755Z,96624.80
2023-03-11T00:06:51.266Z,96617.54
2023-03-11T00:09:17.876Z,96614.89
2023-03-11T00:11:44.423Z,96615.84
2023-03-11T00:14:10.930Z,96604.77
2023-03-11T00:16:41.334Z,96604.29
2023-03-11T00:19:07.901Z,96599.49
2023-03-11T00:21:35.102Z,96601.77
2023-03-11T00:24:03.725Z,96598.81
2023-03-11T00:26:30.338Z,96600.09
2023-03-11T00:28:56.861Z,96602.91
2023-03-11T00:31:23.447Z,96604.31
2023-03-11T00:33:49.989Z,96599.50
2023-03-11T00:36:20.537Z,96594.06
2023-03-11T00:38:47.481Z,96592.19
2023-03-11T00:41:14.005Z,96586.09
2023-03-11T00:43:40.558Z,96582.69
2023-03-11T00:46:07.578Z,96579.93
2023-03-11T00:48:34.227Z,96581.58
2023-03-11T00:51:00.753Z,96579.64
2023-03-11T00:53:27.293Z,96575.30
2023-03-11T00:55:53.807Z,96572.18
2023-03-11T00:58:20.801Z,96572.84
2023-03-11T01:00:50.877Z,96566.60
2023-03-11T01:03:17.426Z,96567.63
2023-03-11T01:05:45.270Z,96561.16
2023-03-11T01:08:11.846Z,96561.05
2023-03-11T01:10:38.370Z,96559.10
2023-03-11T01:13:04.982Z,96557.02
2023-03-11T01:15:32.692Z,96553.77
2023-03-11T01:17:59.353Z,96556.36
2023-03-11T01:20:25.941Z,96558.89
2023-03-11T01:22:52.548Z,96556.20
2023-03-11T01:25:19.578Z,96557.01
2023-03-11T01:27:46.110Z,96558.21
2023-03-11T01:30:13.971Z,96556.30
2023-03-11T01:32:40.528Z,96555.52
2023-03-11T01:35:07.247Z,96555.72
2023-03-11T01:37:33.764Z,96556.76
2023-03-11T01:40:00.308Z,96549.39
2023-03-11T01:42:27.454Z,96544.20
2023-03-11T01:44:55.638Z,96543.90
2023-03-11T01:47:34.656Z,96543.84
2023-03-11T01:50:01.669Z,96540.03
2023-03-11T01:52:28.462Z,96535.73
2023-03-11T01:54:55.138Z,96535.88
2023-03-11T01:57:22.053Z,96539.65
2023-03-11T01:59:51.063Z,96540.02
2023-03-11T02:02:18.881Z,96538.62
2023-03-11T02:04:45.796Z,96535.21
2023-03-11T02:07:12.398Z,96534.91
2023-03-11T02:09:39.168Z,96535.02
2023-03-11T02:12:05.997Z,96529.61
2023-03-11T02:14:32.555Z,96533.67
2023-03-11T02:16:59.065Z,96532.66
2023-03-11T02:19:25.634Z,96529.61
2023-03-11T02:21:52.234Z,96525.26
2023-03-11T02:24:35.603Z,96520.77
2023-03-11T02:27:03.415Z,96519.83
2023-03-11T02:29:30.207Z,96516.79
2023-03-11T02:31:56.949Z,96519.05
2023-03-11T02:34:24.575Z,96517.02
2023-03-11T02:36:51.248Z,96518.71
2023-03-11T02:39:29.080Z,96522.69
2023-03-11T02:41:55.652Z,96518.02
2023-03-11T02:44:22.172Z,96521.93
2023-03-11T02:46:49.476Z,96518.86
2023-03-11T02:49:16.204Z,96520.73
2023-03-11T02:51:42.733Z,96517.94
2023-03-11T02:54:09.500Z,96521.61
2023-03-11T02:56:36.425Z,96519.60
2023-03-11T02:59:02.964Z,96519.50
2023-03-11T03:01:29.619Z,96517.81
2023-03-11T03:03:56.255Z,96519.97
2023-03-11T03:06:22.910Z,96521.59
2023-03-11T03:08:51.198Z,96520.02
2023-03-11T03:11:17.799Z,96519.14
2023-03-11T03:13:46.039Z,96519.15
2023-03-11T03:16:12.807Z,96518.88
2023-03-11T03:18:39.509Z,96521.73
2023-03-11T03:21:07.315Z,96520.14
2023-03-11T03:23:35.388Z,96521.44
2023-03-11T03:26:02.365Z,96521.31
2023-03-11T03:28:28.955Z,96519.60
2023-03-11T03:30:55.531Z,96524.41
2023-03-11T03:33:22.367Z,96527.92
2023-03-11T03:35:49.108Z,96522.75
2023-03-11T03:38:19.938Z,96524.51
2023-03-11T03:40:48.019Z,96522.66
2023-03-11T03:43:16.289Z,96523.54
2023-03-11T03:45:44.114Z,96523.05
2023-03-11T03:48:10.715Z,96520.38
2023-03-11T03:50:40.944Z,96518.44
2023-03-11T03:53:07.986Z,96520.73
2023-03-11T03:55:34.897Z,96521.46
2023-03-11T03:58:01.931Z,96524.70
2023-03-11T04:00:31.538Z,96527.50
2023-03-11T04:02:59.127Z,96528.96
2023-03-11T04:05:32.279Z,96536.51
2023-03-11T04:07:58.991Z,96530.09
2023-03-11T04:10:25.544Z,96532.01
2023-03-11T04:12:52.554Z,96528.83
2023-03-11T04:15:19.503Z,96531.73
2023-03-11T04:17:47.256Z,96536.81
2023-03-11T04:20:14.437Z,96532.21
2023-03-11T04:22:41.859Z,96529.27
2023-03-11T04:25:08.698Z,96533.64
2023-03-11T04:27:35.393Z,96530.09
2023-03-11T04:30:02.421Z,96535.69
2023-03-11T04:32:30.238Z,96537.08
2023-03-11T04:34:57.305Z,96535.15
2023-03-11T04:37:27.220Z,96535.25
2023-03-11T04:39:53.833Z,96538.41
2023-03-11T04:42:20.757Z,96534.94
2023-03-11T04:44:47.542Z,96538.81
2023-03-11T04:47:15.146Z,96537.69
2023-03-11T04:49:41.944Z,96537.20
2023-03-11T04:52:08.566Z,96541.13
2023-03-11T04:54:35.736Z,96547.40
2023-03-11T04:57:02.742Z,96553.54
2023-03-11T04:59:29.458Z,96553.34
2023-03-11T05:01:56.855Z,96555.83
2023-03-11T05:04:23.457Z,96557.24
2023-03-11T05:06:53.242Z,96559.88
2023-03-11T05:09:20.396Z,96563.21
2023-03-11T05:11:46.957Z,96564.46
2023-03-11T05:14:14.178Z,96565.45
2023-03-11T05:16:41.505Z,96565.88
2023-03-11T05:19:28.057Z,96565.29
2023-03-11T05:21:55.110Z,96570.92
2023-03-11T05:24:22.219Z,96567.82
2023-03-11T05:26:48.886Z,96575.10
2023-03-11T05:29:15.919Z,96576.30
2023-03-11T05:31:42.473Z,96576.36
2023-03-11T05:34:09.174Z,96585.25
2023-03-11T05:36:35.811Z,96586.45
2023-03-11T05:39:02.685Z,96591.58
2023-03-11T05:41:30.869Z,96591.08
2023-03-11T05:43:57.405Z,96598.42
2023-03-11T05:46:24.024Z,96598.54
2023-03-11T05:48:50.680Z,96600.19
2023-03-11T05:51:17.429Z,96605.08
2023-03-11T05:53:48.291Z,96606.58
2023-03-11T05:56:18.871Z,96607.52
2023-03-11T05:58:46.111Z,96608.39
2023-03-11T06:01:13.879Z,96607.37
2023-03-11T06:03:40.676Z,96609.82
2023-03-11T06:06:07.984Z,96611.54
2023-03-11T06:08:35.595Z,96607.71
2023-03-11T06:11:03.436Z,96611.05
2023-03-11T06:13:30.115Z,96617.88
2023-03-11T06:15:56.722Z,96614.83
2023-03-11T06:18:23.949Z,96625.35
2023-03-11T06:20:50.585Z,96629.66
2023-03-11T06:23:17.264Z,96632.68
2023-03-11T06:25:43.874Z,96634.25
2023-03-11T06:28:11.269Z,96636.20
2023-03-11T06:30:37.976Z,96640.70
2023-03-11T06:33:08.212Z,96644.20
2023-03-11T06:35:34.889Z,96646.66
2023-03-11T06:38:01.500Z,96656.98
2023-03-11T06:40:28.340Z,96654.90
2023-03-11T06:42:54.950Z,96649.48
2023-03-11T06:45:21.920Z,96654.67
2023-03-11T06:47:48.790Z,96656.75
2023-03-11T06:50:15.613Z,96658.48
2023-03-11T06:52:42.179Z,96661.13
2023-03-11T06:55:09.001Z,96669.43
2023-03-11T06:57:35.995Z,96675.96
2023-03-11T07:00:07.804Z,96680.88
2023-03-11T07:02:34.795Z,96687.48
2023-03-11T07:05:01.370Z,96702.93
2023-03-11T07:07:27.978Z,96702.68
2023-03-11T07:09:55.420Z,96707.77
2023-03-11T07:12:23.183Z,96713.85
2023-03-11T07:14:50.241Z,96715.05
2023-03-11T07:17:16.789Z,96717.96
2023-03-11T07:19:46.915Z,96729.39
2023-03-11T07:22:13.487Z,96732.73
2023-03-11T07:24:39.995Z,96738.55
2023-03-11T07:27:06.519Z,96740.83
2023-03-11T07:29:33.046Z,96747.63
2023-03-11T07:31:59.616Z,96749.70
2023-03-11T07:34:26.208Z,96755.33
2023-03-11T07:36:52.821Z,96753.45
2023-03-11T07:39:19.994Z,96752.92
2023-03-11T07:41:46.949Z,96755.54
2023-03-11T07:44:13.843Z,96759.77
2023-03-11T07:46:40.383Z,96759.33
2023-03-11T07:49:07.534Z,96762.80
2023-03-11T07:51:34.667Z,96767.52
2023-03-11T07:54:01.221Z,96772.91
2023-03-11T07:56:29.358Z,96781.13
2023-03-11T07:58:56.117Z,96785.54
2023-03-11T08:01:23.109Z,96788.63
2023-03-11T08:03:51.552Z,96792.58
2023-03-11T08:06:21.684Z,96797.03
2023-03-11T08:08:48.566Z,96802.83
2023-03-11T08:11:15.478Z,96807.44
2023-03-11T08:13:42.192Z,96806.94
2023-03-11T08:16:09.623Z,96810.20
2023-03-11T08:18:36.287Z,96809.06
2023-03-11T08:21:06.363Z,96815.06
2023-03-11T08:23:32.969Z,96821.63
2023-03-11T08:25:59.716Z,96827.58
2023-03-11T08:28:26.290Z,96832.52
2023-03-11T08:30:53.064Z,96836.63
2023-03-11T08:33:19.672Z,96839.69
2023-03-11T08:35:46.659Z,96845.64
2023-03-11T08:38:13.402Z,96852.74
2023-03-11T08:40:39.958Z,96849.61
2023-03-11T08:43:07.685Z,96851.10
2023-03-11T08:45:34.326Z,96857.08
2023-03-11T08:48:01.177Z,96866.30
2023-03-11T08:50:28.121Z,96868.63
2023-03-11T08:52:56.391Z,96870.64
2023-03-11T08:55:27.766Z,96876.04
2023-03-11T08:57:54.540Z,96875.30
2023-03-11T09:00:21.359Z,96881.94
2023-03-11T09:02:52.596Z,96888.57
2023-03-11T09:05:19.281Z,96894.80
2023-03-11T09:07:45.980Z,96905.63
2023-03-11T09:10:14.008Z,96912.77
2023-03-11T09:12:40.564Z,96927.91
2023-03-11T09:15:07.307Z,96938.70
2023-03-11T09:17:33.903Z,96948.86
2023-03-11T09:20:00.626Z,96957.73
2023-03-11T09:22:27.362Z,96965.47
2023-03-11T09:24:53.946Z,96972.11
2023-03-11T09:27:20.476Z,96977.70
2023-03-11T09:29:46.986Z,96985.80
2023-03-11T09:32:13.742Z,96995.95
2023-03-11T09:34:40.330Z,97001.05
2023-03-11T09:37:06.832Z,97007.08
2023-03-11T09:39:33.422Z,97012.18
2023-03-11T09:42:03.966Z,97022.85
2023-03-11T09:44:33.108Z,97024.73
2023-03-11T09:47:03.671Z,97034.19
2023-03-11T09:49:38.075Z,97039.83
2023-03-11T09:52:15.245Z,97050.81
2023-03-11T09:54:42.696Z,97057.55
2023-03-11T09:57:09.905Z,97064.98
2023-03-11T09:59:36.413Z,97070.73
2023-03-11T10:02:04.167Z,97082.73
2023-03-11T10:04:42.128Z,97094.42
2023-03-11T10:07:12.919Z,97101.79
2023-03-11T10:09:50.133Z,97108.06
2023-03-11T10:12:23.011Z,97116.31
2023-03-11T10:15:05.928Z,97130.57
2023-03-11T10:17:46.772Z,97138.55
2023-03-11T10:20:16.403Z,97147.51
2023-03-11T10:23:01.983Z,97152.74
2023-03-11T10:25:29.237Z,97159.84
2023-03-11T10:27:57.400Z,97170.71
2023-03-11T10:30:42.810Z,97179.06
2023-03-11T10:33:29.595Z,97185.45
2023-03-11T10:35:57.098Z,97190.30
2023-03-11T10:38:28.324Z,97189.48
2023-03-11T10:40:55.497Z,97198.70
2023-03-11T10:43:26.042Z,97212.17
2023-03-11T10:45:52.623Z,97220.08
2023-03-11T10:48:19.723Z,97224.13
2023-03-11T10:50:49.713Z,97232.27
2023-03-11T10:53:17.123Z,97240.55
2023-03-11T10:55:45.984Z,97245.42
2023-03-11T10:58:13.937Z,97251.20
2023-03-11T11:00:40.447Z,97253.09
2023-03-11T11:03:12.528Z,97263.19
2023-03-11T11:05:39.164Z,97268.59
2023-03-11T11:08:12.195Z,97276.23
2023-03-11T11:10:38.785Z,97281.66
2023-03-11T11:13:08.521Z,97286.13
2023-03-11T11:15:36.103Z,97292.45
2023-03-11T11:18:04.182Z,97296.77
2023-03-11T11:20:31.212Z,97297.98
2023-03-11T11:22:58.711Z,97311.77
2023-03-11T11:25:26.438Z,97314.87
2023-03-11T11:28:00.236Z,97322.00
2023-03-11T11:30:26.822Z,97336.54
2023-03-11T11:32:55.740Z,97342.95
2023-03-11T11:35:23.527Z,97347.70
2023-03-11T11:37:51.634Z,97355.70
2023-03-11T11:40:19.670Z,97361.97
2023-03-11T11:42:50.910Z,97360.85
2023-03-11T11:45:28.726Z,97373.46
2023-03-11T11:47:56.157Z,97375.39
2023-03-11T11:50:25.553Z,97385.19
2023-03-11T11:53:01.229Z,97391.10
2023-03-11T11:55:28.285Z,97395.80
2023-03-11T11:57:54.866Z,97395.60
2023-03-11T12:00:26.004Z,97407.45
2023-03-11T12:02:56.368Z,97413.80
2023-03-11T12:05:26.431Z,97415.07
2023-03-11T12:08:14.927Z,97418.48
2023-03-11T12:10:44.015Z,97429.25
2023-03-11T12:13:20.393Z,97432.89
2023-03-11T12:15:50.846Z,97433.79
2023-03-11T12:18:37.742Z,97441.21
2023-03-11T12:21:10.049Z,97446.27
2023-03-11T12:23:39.560Z,97456.10
2023-03-11T12:26:06.136Z,97463.91
2023-03-11T12:28:37.161Z,97470.04
2023-03-11T12:31:05.082Z,97476.08
2023-03-11T12:33:51.896Z,97487.62
2023-03-11T12:36:38.827Z,97499.95
2023-03-11T12:39:06.690Z,97507.34
2023-03-11T12:41:36.944Z,97516.36
2023-03-11T12:44:04.519Z,97518.05
2023-03-11T12:47:06.401Z,97528.44
2023-03-11T12:49:36.501Z,97537.26
2023-03-11T12:52:03.076Z,97548.41
2023-03-11T12:54:34.171Z,97554.15
2023-03-11T12:57:05.729Z,97557.60
2023-03-11T12:59:38.792Z,97567.17
2023-03-11T13:02:12.504Z,97569.05
2023-03-11T13:04:54.716Z,97582.05
2023-03-11T13:07:21.297Z,97587.31
2023-03-11T13:10:01.601Z,97598.30
2023-03-11T13:12:38.349Z,97604.03
2023-03-11T13:15:28.095Z,97604.71
2023-03-11T13:18:07.894Z,97620.92
2023-03-11T13:20:43.731Z,97624.80
2023-03-11T13:23:10.702Z,97634.83
2023-03-11T13:25:40.945Z,97645.41
2023-03-11T13:28:26.407Z,97649.20
2023-03-11T13:30:56.382Z,97656.55
2023-03-11T13:33:25.490Z,97657.02
2023-03-11T13:35:55.253Z,97665.52
2023-03-11T13:38:40.483Z,97668.95
2023-03-11T13:41:14.213Z,97681.38
2023-03-11T13:43:44.689Z,97688.16
2023-03-11T13:46:19.388Z,97697.05
2023-03-11T13:48:46.925Z,97700.13
2023-03-11T13:51:20.782Z,97705.42
2023-03-11T13:53:48.046Z,97712.40
2023-03-11T13:56:25.911Z,97719.41
2023-03-11T13:58:52.468Z,97725.90
2023-03-11T14:01:19.059Z,97727.31
2023-03-11T14:03:46.382Z,97728.88
2023-03-11T14:06:19.298Z,97738.56
2023-03-11T14:08:53.020Z,97742.58
2023-03-11T14:11:20.470Z,97754.01
2023-03-11T14:13:48.015Z,97757.64
2023-03-11T14:16:28.870Z,97762.42
2023-03-11T14:19:01.189Z,97772.63
2023-03-11T14:21:28.000Z,97783.91
2023-03-11T14:23:55.233Z,97782.06
2023-03-11T14:26:26.368Z,97791.88
2023-03-11T14:28:53.721Z,97794.88
2023-03-11T14:31:25.485Z,97800.44
2023-03-11T14:34:04.297Z,97805.27
2023-03-11T14:36:32.942Z,97810.25
2023-03-11T14:38:59.438Z,97817.50
2023-03-11T14:41:25.958Z,97828.13
2023-03-11T14:43:52.686Z,97825.19
2023-03-11T14:46:23.187Z,97836.19
2023-03-11T14:48:49.915Z,97837.23
2023-03-11T14:51:36.724Z,97845.42
2023-03-11T14:54:07.056Z,97846.73
2023-03-11T14:56:34.420Z,97854.64
2023-03-11T14:59:08.418Z,97857.59
2023-03-11T15:01:40.641Z,97868.52
2023-03-11T15:04:09.485Z,97864.91
2023-03-11T15:06:36.072Z,97875.38
2023-03-11T15:09:05.268Z,97878.42
2023-03-11T15:11:32.981Z,97886.88
2023-03-11T15:14:29.123Z,97892.55
2023-03-11T15:16:56.096Z,97898.13
2023-03-11T15:19:25.747Z,97907.52
2023-03-11T15:21:54.544Z,97918.06
2023-03-11T15:24:22.600Z,97914.63
2023-03-11T15:26:56.329Z,97917.13
2023-03-11T15:29:23.168Z,97919.90
2023-03-11T15:31:50.122Z,97919.80
2023-03-11T15:34:16.717Z,97927.31
2023-03-11T15:36:49.129Z,97927.55
2023-03-11T15:39:17.680Z,97926.95
2023-03-11T15:41:45.213Z,97933.66
2023-03-11T15:44:20.767Z,97936.95
2023-03-11T15:46:47.464Z,97939.27
2023-03-11T15:49:13.981Z,97947.02
2023-03-11T15:51:40.536Z,97944.68
2023-03-11T15:54:07.052Z,97952.70
2023-03-11T15:56:33.695Z,97958.15
2023-03-11T15:59:00.319Z,97970.73
2023-03-11T16:01:28.689Z,97976.60
2023-03-11T16:03:55.439Z,97979.42
2023-03-11T16:06:22.918Z,97985.52
2023-03-11T16:08:49.709Z,97989.38
2023-03-11T16:11:16.258Z,97995.13
2023-03-11T16:13:42.899Z,97997.53
2023-03-11T16:16:16.085Z,98008.08
2023-03-11T16:18:42.864Z,98016.65
2023-03-11T16:21:18.859Z,98018.45
2023-03-11T16:23:51.915Z,98027.43
2023-03-11T16:26:18.957Z,98033.65
2023-03-11T16:28:45.542Z,98035.66
2023-03-11T16:31:12.250Z,98040.36
2023-03-11T16:33:38.850Z,98048.78
2023-03-11T16:36:05.679Z,98050.39
2023-03-11T16:38:32.286Z,98061.73
2023-03-11T16:40:59.610Z,98054.80
2023-03-11T16:43:26.897Z,98078.02
2023-03-11T16:45:56.333Z,98085.50
2023-03-11T16:48:23.032Z,98091.61
2023-03-11T16:50:49.631Z,98099.94
2023-03-11T16:53:17.621Z,98103.16
2023-03-11T16:55:44.827Z,98107.52
2023-03-11T16:58:11.786Z,98108.50
2023-03-11T17:00:38.398Z,98117.50
2023-03-11T17:03:04.981Z,98127.23
2023-03-11T17:05:31.530Z,98130.41
2023-03-11T17:08:01.123Z,98135.86
2023-03-11T17:10:28.798Z,98143.00
2023-03-11T17:12:55.635Z,98147.74
2023-03-11T17:15:22.200Z,98150.16
2023-03-11T17:17:50.809Z,98152.52
2023-03-11T17:20:19.324Z,98156.71
2023-03-11T17:22:47.169Z,98159.95
2023-03-11T17:25:13.741Z,98158.73
2023-03-11T17:27:40.299Z,98159.77
2023-03-11T17:30:07.196Z,98163.89
2023-03-11T17:32:33.831Z,98170.29
2023-03-11T17:35:00.869Z,98171.39
2023-03-11T17:37:27.400Z,98177.29
2023-03-11T17:39:53.921Z,98178.89
2023-03-11T17:42:20.584Z,98189.06
2023-03-11T17:44:51.750Z,98192.98
2023-03-11T17:47:20.840Z,98199.27
2023-03-11T17:49:47.875Z,98204.02
2023-03-11T17:52:14.551Z,98211.56
2023-03-11T17:54:41.089Z,98217.52
2023-03-11T17:57:07.661Z,98222.63
2023-03-11T17:59:34.162Z,98232.14
2023-03-11T18:02:00.848Z,98236.98
2023-03-11T18:04:27.642Z,98238.52
2023-03-11T18:06:54.672Z,98244.44
2023-03-11T18:09:21.214Z,98249.63
2023-03-11T18:11:47.804Z,98253.27
2023-03-11T18:14:14.648Z,98260.32
2023-03-11T18:16:41.313Z,98262.95
2023-03-11T18:19:07.884Z,98267.41
2023-03-11T18:21:34.482Z,98274.38
2023-03-11T18:24:01.145Z,98279.83
2023-03-11T18:26:28.162Z,98286.39
2023-03-11T18:28:55.097Z,98292.09
2023-03-11T18:31:22.422Z,98295.03
2023-03-11T18:34:14.194Z,98294.95
2023-03-11T18:36:41.412Z,98299.80
2023-03-11T18:39:11.283Z,98307.40
2023-03-11T18:41:37.928Z,98307.68
2023-03-11T18:44:04.649Z,98312.19
2023-03-11T18:46:31.771Z,98313.39
2023-03-11T18:48:58.828Z,98316.35
2023-03-11T18:51:26.025Z,98320.98
2023-03-11T18:53:52.629Z,98320.30
2023-03-11T18:56:19.141Z,98321.83
2023-03-11T18:58:45.852Z,98330.87
2023-03-11T19:01:14.317Z,98332.52
2023-03-11T19:03:41.659Z,98336.36
2023-03-11T19:06:09.432Z,98339.19
2023-03-11T19:08:36.086Z,98343.17
2023-03-11T19:11:08.915Z,98346.38
2023-03-11T19:13:46.261Z,98348.98
2023-03-11T19:16:14.478Z,98351.17
2023-03-11T19:18:41.050Z,98355.71
2023-03-11T19:21:07.919Z,98360.37
2023-03-11T19:23:34.533Z,98361.68
2023-03-11T19:26:03.459Z,98369.66
2023-03-11T19:28:30.358Z,98370.93
2023-03-11T19:30:57.175Z,98367.27
2023-03-11T19:33:24.468Z,98370.27
2023-03-11T19:35:51.741Z,98374.07
2023-03-11T19:38:18.531Z,98375.03
2023-03-11T19:40:45.406Z,98386.85
2023-03-11T19:43:13.813Z,98384.64
2023-03-11T19:45:40.440Z,98394.90
2023-03-11T19:48:07.021Z,98397.19
2023-03-11T19:50:33.730Z,98394.70
2023-03-11T19:53:00.493Z,98397.21
2023-03-11T19:55:27.198Z,98399.56
2023-03-11T19:57:53.770Z,98398.74
2023-03-11T20:00:20.672Z,98399.33
2023-03-11T20:02:47.278Z,98408.84
2023-03-11T20:05:14.016Z,98410.40
2023-03-11T20:07:40.727Z,98411.21
2023-03-11T20:10:07.568Z,98417.63
2023-03-11T20:12:34.483Z,98421.14
2023-03-11T20:15:01.234Z,98425.21
2023-03-11T20:17:27.803Z,98426.41
2023-03-11T20:19:54.384Z,98424.14
2023-03-11T20:22:21.082Z,98429.92
2023-03-11T20:24:47.618Z,98426.20
2023-03-11T20:27:15.260Z,98440.19
2023-03-11T20:29:42.032Z,98442.42
2023-03-11T20:32:08.733Z,98449.84
2023-03-11T20:34:35.331Z,98445.05
2023-03-11T20:37:02.994Z,98448.17
2023-03-11T20:39:30.383Z,98448.94
2023-03-11T20:41:57.072Z,98450.24
2023-03-11T20:44:24.321Z,98448.70
2023-03-11T20:46:51.158Z,98447.84
2023-03-11T20:49:18.210Z,98449.74
2023-03-11T20:51:48.204Z,98448.14
2023-03-11T20:54:15.252Z,98446.59
2023-03-11T20:56:42.741Z,98442.06
2023-03-11T20:59:10.247Z,98448.36
2023-03-11T21:01:37.159Z,98456.76
2023-03-11T21:04:04.076Z,98455.23
2023-03-11T21:06:35.075Z,98457.61
2023-03-11T21:09:02.380Z,98462.78
2023-03-11T21:11:29.231Z,98461.72
2023-03-11T21:13:55.937Z,98457.47
2023-03-11T21:16:23.772Z,98458.63
2023-03-11T21:18:50.823Z,98461.85
2023-03-11T21:21:17.837Z,98464.38
2023-03-11T21:23:45.167Z,98468.15
2023-03-11T21:26:12.573Z,98465.81
2023-03-11T21:28:40.229Z,98473.31
2023-03-11T21:31:08.027Z,98471.25
2023-03-11T21:33:35.081Z,98474.54
2023-03-11T21:36:01.873Z,98476.52
2023-03-11T21:38:29.010Z,98475.32
2023-03-11T21:41:24.591Z,98476.70
2023-03-11T21:43:51.483Z,98477.57
2023-03-11T21:46:19.263Z,98480.05
2023-03-11T21:48:48.647Z,98484.04
2023-03-11T21:51:15.910Z,98483.38
2023-03-11T21:53:42.878Z,98484.88
2023-03-11T21:56:10.297Z,98488.70
2023-03-11T21:58:37.122Z,98489.46
2023-03-11T22:01:03.979Z,98489.11
2023-03-11T22:03:31.177Z,98491.33
2023-03-11T22:05:58.410Z,98495.72
2023-03-11T22:08:25.172Z,98493.77
2023-03-11T22:10:51.955Z,98494.31
2023-03-11T22:13:18.558Z,98499.92
2023-03-11T22:15:45.341Z,98497.46
2023-03-11T22:18:12.142Z,98498.27
2023-03-11T22:20:41.981Z,98496.77
2023-03-11T22:23:35.065Z,98502.51
2023-03-11T22:26:01.708Z,98505.57
2023-03-11T22:28:28.308Z,98507.20
2023-03-11T22:30:54.926Z,98507.83
2023-03-11T22:33:21.546Z,98512.50
2023-03-11T22:35:51.903Z,98514.33
2023-03-11T22:38:18.521Z,98517.49
2023-03-11T22:40:45.090Z,98517.25
2023-03-11T22:43:11.638Z,98517.35
2023-03-11T22:45:38.492Z,98519.81
2023-03-11T22:48:07.424Z,98515.48
2023-03-11T22:50:34.008Z,98515.39
2023-03-11T22:53:00.957Z,98514.23
2023-03-11T22:55:27.488Z,98516.27
2023-03-11T22:57:54.194Z,98514.81
2023-03-11T23:00:21.332Z,98519.89
2023-03-11T23:02:48.408Z,98521.09
2023-03-11T23:05:15.347Z,98515.84
2023-03-11T23:07:42.026Z,98513.58
2023-03-11T23:10:09.463Z,98514.47
2023-03-11T23:12:36.311Z,98514.86
2023-03-11T23:15:03.874Z,98515.92
2023-03-11T23:17:30.517Z,98516.38
2023-03-11T23:19:57.108Z,98516.01
2023-03-11T23:22:24.650Z,98514.86
2023-03-11T23:24:51.231Z,98517.17
2023-03-11T23:27:17.760Z,98516.69
2023-03-11T23:29:44.417Z,98514.00
2023-03-11T23:32:11.159Z,98510.30
2023-03-11T23:34:37.787Z,98512.90
2023-03-11T23:37:05.533Z,98511.50
2023-03-11T23:39:32.137Z,98515.64
2023-03-11T23:41:58.674Z,98511.61
2023-03-11T23:44:25.297Z,98518.44
2023-03-11T23:46:51.820Z,98518.88
2023-03-11T23:49:18.354Z,98518.52
2023-03-11T23:51:44.921Z,98522.15
2023-03-11T23:54:11.561Z,98522.54
2023-03-11T23:56:38.169Z,98522.05
2023-03-11T23:59:05.036Z,98523.60
